sensor_id;sensor_type;location;lat;lon;timestamp;temperature;humidity
27200;DHT22;14714;48.106;11.546;2022-10-30T00:01:55;10.30;99.90
27200;DHT22;14714;48.106;11.546;2022-10-30T00:04:22;10.30;99.90
27200;DHT22;14714;48.106;11.546;2022-10-30T00:06:49;10.20;99.90
27200;DHT22;14714;48.106;11.546;2022-10-30T00:09:16;10.20;99.90
27200;DHT22;14714;48.106;11.546;2022-10-30T00:11:43;10.20;99.90
27200;DHT22;14714;48.106;11.546;2022-10-30T00:14:09;10.20;99.90
27200;DHT22;14714;48.106;11.546;2022-10-30T00:16:36;10.20;99.90
27200;DHT22;14714;48.106;11.546;2022-10-30T00:19:02;10.20;99.90
27200;DHT22;14714;48.106;11.546;2022-10-30T00:21:30;10.10;99.90
27200;DHT22;14714;48.106;11.546;2022-10-30T00:23:56;10.10;99.90
27200;DHT22;14714;48.106;11.546;2022-10-30T00:26:23;10.10;99.90
27200;DHT22;14714;48.106;11.546;2022-10-30T00:28:52;10.00;99.90
27200;DHT22;14714;48.106;11.546;2022-10-30T00:31:18;10.00;99.90
27200;DHT22;14714;48.106;11.546;2022-10-30T00:33:49;10.00;99.90
27200;DHT22;14714;48.106;11.546;2022-10-30T00:36:16;10.00;99.90
27200;DHT22;14714;48.106;11.546;2022-10-30T00:38:43;10.00;99.90
27200;DHT22;14714;48.106;11.546;2022-10-30T00:41:20;10.00;99.90
27200;DHT22;14714;48.106;11.546;2022-10-30T00:43:47;9.90;99.90
27200;DHT22;14714;48.106;11.546;2022-10-30T00:46:20;9.90;99.90
27200;DHT22;14714;48.106;11.546;2022-10-30T00:48:51;9.80;99.90
27200;DHT22;14714;48.106;11.546;2022-10-30T00:51:19;9.80;99.90
27200;DHT22;14714;48.106;11.546;2022-10-30T00:53:46;9.80;99.90
27200;DHT22;14714;48.106;11.546;2022-10-30T00:56:14;9.80;99.90
27200;DHT22;14714;48.106;11.546;2022-10-30T00:58:42;9.80;99.90
27200;DHT22;14714;48.106;11.546;2022-10-30T01:01:13;9.70;99.90
27200;DHT22;14714;48.106;11.546;2022-10-30T01:03:42;9.70;99.90
27200;DHT22;14714;48.106;11.546;2022-10-30T01:06:09;9.70;99.90
27200;DHT22;14714;48.106;11.546;2022-10-30T01:08:37;9.70;99.90
27200;DHT22;14714;48.106;11.546;2022-10-30T01:11:04;9.80;99.90
27200;DHT22;14714;48.106;11.546;2022-10-30T01:13:31;9.80;99.90
27200;DHT22;14714;48.106;11.546;2022-10-30T01:18:47;9.70;99.90
27200;DHT22;14714;48.106;11.546;2022-10-30T01:26:36;9.70;99.90
27200;DHT22;14714;48.106;11.546;2022-10-30T01:31:50;9.60;99.90
27200;DHT22;14714;48.106;11.546;2022-10-30T01:39:36;9.60;99.90
27200;DHT22;14714;48.106;11.546;2022-10-30T01:42:07;9.60;99.90
27200;DHT22;14714;48.106;11.546;2022-10-30T01:44:34;9.60;99.90
27200;DHT22;14714;48.106;11.546;2022-10-30T01:52:16;9.50;99.90
27200;DHT22;14714;48.106;11.546;2022-10-30T01:57:37;9.50;99.90
27200;DHT22;14714;48.106;11.546;2022-10-30T02:00:06;9.50;99.90
27200;DHT22;14714;48.106;11.546;2022-10-30T02:02:33;9.50;99.90
27200;DHT22;14714;48.106;11.546;2022-10-30T02:05:00;9.50;99.90
27200;DHT22;14714;48.106;11.546;2022-10-30T02:07:27;9.40;99.90
27200;DHT22;14714;48.106;11.546;2022-10-30T02:09:53;9.40;99.90
27200;DHT22;14714;48.106;11.546;2022-10-30T02:12:21;9.40;99.90
27200;DHT22;14714;48.106;11.546;2022-10-30T02:14:49;9.40;99.90
27200;DHT22;14714;48.106;11.546;2022-10-30T02:17:17;9.40;99.90
27200;DHT22;14714;48.106;11.546;2022-10-30T02:19:44;9.40;99.90
27200;DHT22;14714;48.106;11.546;2022-10-30T02:22:10;9.40;99.90
27200;DHT22;14714;48.106;11.546;2022-10-30T02:24:37;9.30;99.90
27200;DHT22;14714;48.106;11.546;2022-10-30T02:27:04;9.30;99.90
27200;DHT22;14714;48.106;11.546;2022-10-30T02:29:30;9.30;99.90
27200;DHT22;14714;48.106;11.546;2022-10-30T02:31:57;9.40;99.90
27200;DHT22;14714;48.106;11.546;2022-10-30T02:34:23;9.30;99.90
27200;DHT22;14714;48.106;11.546;2022-10-30T02:36:50;9.30;99.90
27200;DHT22;14714;48.106;11.546;2022-10-30T02:39:17;9.30;99.90
27200;DHT22;14714;48.106;11.546;2022-10-30T02:41:46;9.30;99.90
27200;DHT22;14714;48.106;11.546;2022-10-30T02:44:13;9.20;99.90
27200;DHT22;14714;48.106;11.546;2022-10-30T02:46:40;9.20;99.90
27200;DHT22;14714;48.106;11.546;2022-10-30T02:49:07;9.20;99.90
27200;DHT22;14714;48.106;11.546;2022-10-30T02:51:34;9.20;99.90
27200;DHT22;14714;48.106;11.546;2022-10-30T02:54:00;9.20;99.90
27200;DHT22;14714;48.106;11.546;2022-10-30T02:56:27;9.10;99.90
27200;DHT22;14714;48.106;11.546;2022-10-30T02:58:54;9.20;99.90
27200;DHT22;14714;48.106;11.546;2022-10-30T03:01:21;9.10;99.90
27200;DHT22;14714;48.106;11.546;2022-10-30T03:03:48;9.10;99.90
27200;DHT22;14714;48.106;11.546;2022-10-30T03:06:15;9.10;99.90
27200;DHT22;14714;48.106;11.546;2022-10-30T03:08:42;9.00;99.90
27200;DHT22;14714;48.106;11.546;2022-10-30T03:11:10;9.10;99.90
27200;DHT22;14714;48.106;11.546;2022-10-30T03:13:37;9.00;99.90
27200;DHT22;14714;48.106;11.546;2022-10-30T03:16:07;9.00;99.90
27200;DHT22;14714;48.106;11.546;2022-10-30T03:18:34;9.00;99.90
27200;DHT22;14714;48.106;11.546;2022-10-30T03:21:01;9.00;99.90
27200;DHT22;14714;48.106;11.546;2022-10-30T03:23:28;9.00;99.90
27200;DHT22;14714;48.106;11.546;2022-10-30T03:25:56;9.00;99.90
27200;DHT22;14714;48.106;11.546;2022-10-30T03:28:23;9.00;99.90
27200;DHT22;14714;48.106;11.546;2022-10-30T03:30:50;9.00;99.90
27200;DHT22;14714;48.106;11.546;2022-10-30T03:33:17;8.90;99.90
27200;DHT22;14714;48.106;11.546;2022-10-30T03:35:44;9.00;99.90
27200;DHT22;14714;48.106;11.546;2022-10-30T03:38:11;9.00;99.90
27200;DHT22;14714;48.106;11.546;2022-10-30T03:40:38;8.90;99.90
27200;DHT22;14714;48.106;11.546;2022-10-30T03:43:05;8.90;99.90
27200;DHT22;14714;48.106;11.546;2022-10-30T03:45:32;8.90;99.90
27200;DHT22;14714;48.106;11.546;2022-10-30T03:48:00;8.90;99.90
27200;DHT22;14714;48.106;11.546;2022-10-30T03:50:27;8.90;99.90
27200;DHT22;14714;48.106;11.546;2022-10-30T03:52:54;8.80;99.90
27200;DHT22;14714;48.106;11.546;2022-10-30T03:55:21;8.80;99.90
27200;DHT22;14714;48.106;11.546;2022-10-30T03:57:48;8.80;99.90
27200;DHT22;14714;48.106;11.546;2022-10-30T04:00:15;8.80;99.90
27200;DHT22;14714;48.106;11.546;2022-10-30T04:02:49;8.80;99.90
27200;DHT22;14714;48.106;11.546;2022-10-30T04:05:20;8.80;99.90
27200;DHT22;14714;48.106;11.546;2022-10-30T04:07:46;8.80;99.90
27200;DHT22;14714;48.106;11.546;2022-10-30T04:10:13;8.70;99.90
27200;DHT22;14714;48.106;11.546;2022-10-30T04:12:48;8.80;99.90
27200;DHT22;14714;48.106;11.546;2022-10-30T04:15:15;8.80;99.90
27200;DHT22;14714;48.106;11.546;2022-10-30T04:17:48;8.70;99.90
27200;DHT22;14714;48.106;11.546;2022-10-30T04:20:16;8.70;99.90
27200;DHT22;14714;48.106;11.546;2022-10-30T04:22:43;8.70;99.90
27200;DHT22;14714;48.106;11.546;2022-10-30T04:25:10;8.70;99.90
27200;DHT22;14714;48.106;11.546;2022-10-30T04:27:43;8.70;99.90
27200;DHT22;14714;48.106;11.546;2022-10-30T04:30:10;8.70;99.90
27200;DHT22;14714;48.106;11.546;2022-10-30T04:32:47;8.70;99.90
27200;DHT22;14714;48.106;11.546;2022-10-30T04:35:14;8.70;99.90
27200;DHT22;14714;48.106;11.546;2022-10-30T04:37:42;8.60;99.90
27200;DHT22;14714;48.106;11.546;2022-10-30T04:40:08;8.70;99.90
27200;DHT22;14714;48.106;11.546;2022-10-30T04:42:35;8.70;99.90
27200;DHT22;14714;48.106;11.546;2022-10-30T04:45:02;8.70;99.90
27200;DHT22;14714;48.106;11.546;2022-10-30T04:47:30;8.70;99.90
27200;DHT22;14714;48.106;11.546;2022-10-30T04:50:02;8.70;99.90
27200;DHT22;14714;48.106;11.546;2022-10-30T04:52:28;8.60;99.90
27200;DHT22;14714;48.106;11.546;2022-10-30T04:54:55;8.60;99.90
27200;DHT22;14714;48.106;11.546;2022-10-30T04:57:22;8.60;99.90
27200;DHT22;14714;48.106;11.546;2022-10-30T04:59:48;8.60;99.90
27200;DHT22;14714;48.106;11.546;2022-10-30T05:02:15;8.60;99.90
27200;DHT22;14714;48.106;11.546;2022-10-30T05:04:44;8.50;99.90
27200;DHT22;14714;48.106;11.546;2022-10-30T05:07:11;8.60;99.90
27200;DHT22;14714;48.106;11.546;2022-10-30T05:09:38;8.50;99.90
27200;DHT22;14714;48.106;11.546;2022-10-30T05:12:05;8.50;99.90
27200;DHT22;14714;48.106;11.546;2022-10-30T05:14:32;8.50;99.90
27200;DHT22;14714;48.106;11.546;2022-10-30T05:16:59;8.50;99.90
27200;DHT22;14714;48.106;11.546;2022-10-30T05:19:25;8.50;99.90
27200;DHT22;14714;48.106;11.546;2022-10-30T05:21:52;8.50;99.90
27200;DHT22;14714;48.106;11.546;2022-10-30T05:24:18;8.50;99.90
27200;DHT22;14714;48.106;11.546;2022-10-30T05:26:45;8.50;99.90
27200;DHT22;14714;48.106;11.546;2022-10-30T05:29:12;8.40;99.90
27200;DHT22;14714;48.106;11.546;2022-10-30T05:31:39;8.40;99.90
27200;DHT22;14714;48.106;11.546;2022-10-30T05:34:05;8.40;99.90
27200;DHT22;14714;48.106;11.546;2022-10-30T05:36:33;8.40;99.90
27200;DHT22;14714;48.106;11.546;2022-10-30T05:38:59;8.40;99.90
27200;DHT22;14714;48.106;11.546;2022-10-30T05:41:28;8.30;99.90
27200;DHT22;14714;48.106;11.546;2022-10-30T05:43:55;8.30;99.90
27200;DHT22;14714;48.106;11.546;2022-10-30T05:46:22;8.30;99.90
27200;DHT22;14714;48.106;11.546;2022-10-30T05:48:48;8.30;99.90
27200;DHT22;14714;48.106;11.546;2022-10-30T05:51:15;8.30;99.90
27200;DHT22;14714;48.106;11.546;2022-10-30T05:53:41;8.30;99.90
27200;DHT22;14714;48.106;11.546;2022-10-30T05:56:08;8.30;99.90
27200;DHT22;14714;48.106;11.546;2022-10-30T05:58:35;8.30;99.90
27200;DHT22;14714;48.106;11.546;2022-10-30T06:01:04;8.20;99.90
27200;DHT22;14714;48.106;11.546;2022-10-30T06:03:30;8.20;99.90
27200;DHT22;14714;48.106;11.546;2022-10-30T06:05:57;8.20;99.90
27200;DHT22;14714;48.106;11.546;2022-10-30T06:08:24;8.20;99.90
27200;DHT22;14714;48.106;11.546;2022-10-30T06:10:52;8.20;99.90
27200;DHT22;14714;48.106;11.546;2022-10-30T06:13:18;8.30;99.90
27200;DHT22;14714;48.106;11.546;2022-10-30T06:15:45;8.30;99.90
27200;DHT22;14714;48.106;11.546;2022-10-30T06:18:12;8.30;99.90
27200;DHT22;14714;48.106;11.546;2022-10-30T06:20:38;8.30;99.90
27200;DHT22;14714;48.106;11.546;2022-10-30T06:23:06;8.30;99.90
27200;DHT22;14714;48.106;11.546;2022-10-30T06:25:33;8.40;99.90
27200;DHT22;14714;48.106;11.546;2022-10-30T06:28:08;8.50;99.90
27200;DHT22;14714;48.106;11.546;2022-10-30T06:30:35;8.50;99.90
27200;DHT22;14714;48.106;11.546;2022-10-30T06:33:02;8.60;99.90
27200;DHT22;14714;48.106;11.546;2022-10-30T06:35:30;8.70;99.90
27200;DHT22;14714;48.106;11.546;2022-10-30T06:37:56;8.80;99.90
27200;DHT22;14714;48.106;11.546;2022-10-30T06:40:26;8.90;99.90
27200;DHT22;14714;48.106;11.546;2022-10-30T06:42:55;9.00;99.90
27200;DHT22;14714;48.106;11.546;2022-10-30T06:45:22;9.10;99.90
27200;DHT22;14714;48.106;11.546;2022-10-30T06:47:49;9.30;99.90
27200;DHT22;14714;48.106;11.546;2022-10-30T06:50:16;9.40;99.90
27200;DHT22;14714;48.106;11.546;2022-10-30T06:52:43;9.50;99.90
27200;DHT22;14714;48.106;11.546;2022-10-30T06:55:10;9.70;99.90
27200;DHT22;14714;48.106;11.546;2022-10-30T06:57:37;9.80;99.90
27200;DHT22;14714;48.106;11.546;2022-10-30T07:00:04;9.90;99.90
27200;DHT22;14714;48.106;11.546;2022-10-30T07:02:31;10.00;99.90
27200;DHT22;14714;48.106;11.546;2022-10-30T07:04:58;10.20;99.90
27200;DHT22;14714;48.106;11.546;2022-10-30T07:07:24;10.20;99.90
27200;DHT22;14714;48.106;11.546;2022-10-30T07:09:51;10.40;99.90
27200;DHT22;14714;48.106;11.546;2022-10-30T07:12:17;10.50;99.90
27200;DHT22;14714;48.106;11.546;2022-10-30T07:14:44;10.70;99.90
27200;DHT22;14714;48.106;11.546;2022-10-30T07:17:11;10.80;99.90
27200;DHT22;14714;48.106;11.546;2022-10-30T07:19:38;11.00;99.90
27200;DHT22;14714;48.106;11.546;2022-10-30T07:22:04;11.20;99.90
27200;DHT22;14714;48.106;11.546;2022-10-30T07:24:31;11.30;99.90
27200;DHT22;14714;48.106;11.546;2022-10-30T07:26:57;11.50;99.90
27200;DHT22;14714;48.106;11.546;2022-10-30T07:29:24;11.70;99.90
27200;DHT22;14714;48.106;11.546;2022-10-30T07:31:51;11.90;99.90
27200;DHT22;14714;48.106;11.546;2022-10-30T07:34:28;12.10;99.90
27200;DHT22;14714;48.106;11.546;2022-10-30T07:36:54;12.20;99.90
27200;DHT22;14714;48.106;11.546;2022-10-30T07:39:21;12.30;99.90
27200;DHT22;14714;48.106;11.546;2022-10-30T07:41:48;12.50;99.90
27200;DHT22;14714;48.106;11.546;2022-10-30T07:44:16;12.80;99.90
27200;DHT22;14714;48.106;11.546;2022-10-30T07:46:42;13.00;99.90
27200;DHT22;14714;48.106;11.546;2022-10-30T07:49:09;13.10;99.90
27200;DHT22;14714;48.106;11.546;2022-10-30T07:51:36;13.30;99.90
27200;DHT22;14714;48.106;11.546;2022-10-30T07:54:02;13.50;99.90
27200;DHT22;14714;48.106;11.546;2022-10-30T07:56:29;13.70;99.90
27200;DHT22;14714;48.106;11.546;2022-10-30T07:58:56;13.90;99.90
27200;DHT22;14714;48.106;11.546;2022-10-30T08:01:22;14.00;99.90
27200;DHT22;14714;48.106;11.546;2022-10-30T08:03:49;14.20;99.90
27200;DHT22;14714;48.106;11.546;2022-10-30T08:06:16;14.30;99.90
27200;DHT22;14714;48.106;11.546;2022-10-30T08:08:48;14.50;99.90
27200;DHT22;14714;48.106;11.546;2022-10-30T08:11:15;14.70;99.90
27200;DHT22;14714;48.106;11.546;2022-10-30T08:13:41;14.90;99.90
27200;DHT22;14714;48.106;11.546;2022-10-30T08:16:08;15.00;99.90
27200;DHT22;14714;48.106;11.546;2022-10-30T08:18:35;15.20;99.90
27200;DHT22;14714;48.106;11.546;2022-10-30T08:21:02;15.40;99.90
27200;DHT22;14714;48.106;11.546;2022-10-30T08:23:28;15.50;99.90
27200;DHT22;14714;48.106;11.546;2022-10-30T08:25:56;15.70;99.90
27200;DHT22;14714;48.106;11.546;2022-10-30T08:28:22;15.90;99.90
27200;DHT22;14714;48.106;11.546;2022-10-30T08:30:56;16.10;99.90
27200;DHT22;14714;48.106;11.546;2022-10-30T08:33:23;16.30;99.90
27200;DHT22;14714;48.106;11.546;2022-10-30T08:35:50;16.60;99.90
27200;DHT22;14714;48.106;11.546;2022-10-30T08:38:17;17.00;99.90
27200;DHT22;14714;48.106;11.546;2022-10-30T08:40:44;17.50;99.90
27200;DHT22;14714;48.106;11.546;2022-10-30T08:43:11;18.00;99.90
27200;DHT22;14714;48.106;11.546;2022-10-30T08:45:38;18.40;99.90
27200;DHT22;14714;48.106;11.546;2022-10-30T08:48:05;19.00;99.90
27200;DHT22;14714;48.106;11.546;2022-10-30T08:50:32;19.90;99.90
27200;DHT22;14714;48.106;11.546;2022-10-30T08:53:00;21.20;99.90
27200;DHT22;14714;48.106;11.546;2022-10-30T08:55:29;22.60;99.90
27200;DHT22;14714;48.106;11.546;2022-10-30T08:57:56;23.80;99.90
27200;DHT22;14714;48.106;11.546;2022-10-30T09:00:22;25.00;97.40
27200;DHT22;14714;48.106;11.546;2022-10-30T09:02:49;26.10;92.50
27200;DHT22;14714;48.106;11.546;2022-10-30T09:05:16;27.30;85.00
27200;DHT22;14714;48.106;11.546;2022-10-30T09:07:43;28.20;74.60
27200;DHT22;14714;48.106;11.546;2022-10-30T09:10:10;28.70;68.50
27200;DHT22;14714;48.106;11.546;2022-10-30T09:12:37;28.50;64.60
27200;DHT22;14714;48.106;11.546;2022-10-30T09:15:04;28.20;61.80
27200;DHT22;14714;48.106;11.546;2022-10-30T09:17:31;27.70;61.90
27200;DHT22;14714;48.106;11.546;2022-10-30T09:22:47;26.70;65.50
27200;DHT22;14714;48.106;11.546;2022-10-30T09:25:14;25.90;63.80
27200;DHT22;14714;48.106;11.546;2022-10-30T09:27:41;25.40;67.20
27200;DHT22;14714;48.106;11.546;2022-10-30T09:30:08;24.80;65.10
27200;DHT22;14714;48.106;11.546;2022-10-30T09:32:34;24.30;68.00
27200;DHT22;14714;48.106;11.546;2022-10-30T09:35:01;23.90;68.50
27200;DHT22;14714;48.106;11.546;2022-10-30T09:37:37;23.60;67.70
27200;DHT22;14714;48.106;11.546;2022-10-30T09:40:04;23.40;68.30
27200;DHT22;14714;48.106;11.546;2022-10-30T09:50:35;22.90;71.70
27200;DHT22;14714;48.106;11.546;2022-10-30T09:56:43;22.70;69.00
27200;DHT22;14714;48.106;11.546;2022-10-30T10:06:31;22.50;68.90
27200;DHT22;14714;48.106;11.546;2022-10-30T10:09:00;22.50;67.20
27200;DHT22;14714;48.106;11.546;2022-10-30T10:11:28;22.50;70.20
27200;DHT22;14714;48.106;11.546;2022-10-30T10:13:58;22.50;69.70
27200;DHT22;14714;48.106;11.546;2022-10-30T10:16:28;22.50;69.80
27200;DHT22;14714;48.106;11.546;2022-10-30T10:23:50;22.40;68.50
27200;DHT22;14714;48.106;11.546;2022-10-30T10:28:57;22.30;69.40
27200;DHT22;14714;48.106;11.546;2022-10-30T10:33:59;22.20;69.30
27200;DHT22;14714;48.106;11.546;2022-10-30T10:36:38;22.10;70.50
27200;DHT22;14714;48.106;11.546;2022-10-30T10:41:50;22.00;68.70
27200;DHT22;14714;48.106;11.546;2022-10-30T10:52:09;22.10;67.70
27200;DHT22;14714;48.106;11.546;2022-10-30T10:54:51;22.20;70.60
27200;DHT22;14714;48.106;11.546;2022-10-30T10:59:49;22.50;65.30
27200;DHT22;14714;48.106;11.546;2022-10-30T11:02:32;22.70;65.00
27200;DHT22;14714;48.106;11.546;2022-10-30T11:07:48;23.10;68.70
27200;DHT22;14714;48.106;11.546;2022-10-30T11:10:17;23.30;65.90
27200;DHT22;14714;48.106;11.546;2022-10-30T11:12:44;23.40;62.40
27200;DHT22;14714;48.106;11.546;2022-10-30T11:17:54;23.50;61.80
27200;DHT22;14714;48.106;11.546;2022-10-30T11:20:27;23.50;64.20
27200;DHT22;14714;48.106;11.546;2022-10-30T11:22:55;23.60;64.10
27200;DHT22;14714;48.106;11.546;2022-10-30T11:25:25;23.50;61.60
27200;DHT22;14714;48.106;11.546;2022-10-30T11:27:57;23.50;64.60
27200;DHT22;14714;48.106;11.546;2022-10-30T11:30:25;23.50;63.60
27200;DHT22;14714;48.106;11.546;2022-10-30T11:32:54;23.50;62.50
27200;DHT22;14714;48.106;11.546;2022-10-30T11:35:23;23.40;61.60
27200;DHT22;14714;48.106;11.546;2022-10-30T11:38:11;23.40;62.30
27200;DHT22;14714;48.106;11.546;2022-10-30T11:40:39;23.30;63.60
27200;DHT22;14714;48.106;11.546;2022-10-30T11:43:18;23.30;63.10
27200;DHT22;14714;48.106;11.546;2022-10-30T11:45:45;23.10;63.00
27200;DHT22;14714;48.106;11.546;2022-10-30T11:48:18;23.00;61.80
27200;DHT22;14714;48.106;11.546;2022-10-30T11:50:47;22.90;62.10
27200;DHT22;14714;48.106;11.546;2022-10-30T11:53:17;22.90;63.20
27200;DHT22;14714;48.106;11.546;2022-10-30T11:55:45;22.80;62.10
27200;DHT22;14714;48.106;11.546;2022-10-30T11:58:22;22.80;65.30
27200;DHT22;14714;48.106;11.546;2022-10-30T12:01:36;22.90;63.30
27200;DHT22;14714;48.106;11.546;2022-10-30T12:03:38;22.90;63.90
27200;DHT22;14714;48.106;11.546;2022-10-30T12:06:05;23.00;63.00
27200;DHT22;14714;48.106;11.546;2022-10-30T12:08:33;23.10;62.20
27200;DHT22;14714;48.106;11.546;2022-10-30T12:11:03;23.20;60.20
27200;DHT22;14714;48.106;11.546;2022-10-30T12:13:39;23.20;60.10
27200;DHT22;14714;48.106;11.546;2022-10-30T12:16:07;23.20;59.20
27200;DHT22;14714;48.106;11.546;2022-10-30T12:18:35;23.20;59.90
27200;DHT22;14714;48.106;11.546;2022-10-30T12:21:02;23.20;61.30
27200;DHT22;14714;48.106;11.546;2022-10-30T12:23:29;23.20;61.50
27200;DHT22;14714;48.106;11.546;2022-10-30T12:25:57;23.10;61.90
27200;DHT22;14714;48.106;11.546;2022-10-30T12:28:26;23.10;61.60
27200;DHT22;14714;48.106;11.546;2022-10-30T12:30:55;23.00;62.50
27200;DHT22;14714;48.106;11.546;2022-10-30T12:33:24;22.90;61.10
27200;DHT22;14714;48.106;11.546;2022-10-30T12:35:56;22.80;62.20
27200;DHT22;14714;48.106;11.546;2022-10-30T12:41:15;22.70;62.40
27200;DHT22;14714;48.106;11.546;2022-10-30T12:43:44;22.60;62.00
27200;DHT22;14714;48.106;11.546;2022-10-30T12:46:54;22.50;62.40
27200;DHT22;14714;48.106;11.546;2022-10-30T12:49:04;22.40;62.90
27200;DHT22;14714;48.106;11.546;2022-10-30T12:51:56;22.40;63.70
27200;DHT22;14714;48.106;11.546;2022-10-30T12:57:02;22.30;63.60
27200;DHT22;14714;48.106;11.546;2022-10-30T13:01:58;22.30;66.30
27200;DHT22;14714;48.106;11.546;2022-10-30T13:04:28;22.30;63.20
27200;DHT22;14714;48.106;11.546;2022-10-30T13:09:31;22.30;64.10
27200;DHT22;14714;48.106;11.546;2022-10-30T13:14:35;22.20;65.40
27200;DHT22;14714;48.106;11.546;2022-10-30T13:17:05;22.10;65.00
27200;DHT22;14714;48.106;11.546;2022-10-30T13:19:34;22.10;65.50
27200;DHT22;14714;48.106;11.546;2022-10-30T13:22:06;22.10;65.90
27200;DHT22;14714;48.106;11.546;2022-10-30T13:24:46;22.10;66.70
27200;DHT22;14714;48.106;11.546;2022-10-30T13:34:50;22.00;67.00
27200;DHT22;14714;48.106;11.546;2022-10-30T13:37:23;22.10;68.20
27200;DHT22;14714;48.106;11.546;2022-10-30T13:47:42;22.10;66.80
27200;DHT22;14714;48.106;11.546;2022-10-30T13:50:14;22.20;67.70
27200;DHT22;14714;48.106;11.546;2022-10-30T13:52:44;22.20;67.50
27200;DHT22;14714;48.106;11.546;2022-10-30T13:55:34;22.20;67.30
27200;DHT22;14714;48.106;11.546;2022-10-30T14:05:47;22.20;70.20
27200;DHT22;14714;48.106;11.546;2022-10-30T14:10:59;22.20;71.70
27200;DHT22;14714;48.106;11.546;2022-10-30T14:13:28;22.20;72.40
27200;DHT22;14714;48.106;11.546;2022-10-30T14:16:03;22.10;72.00
27200;DHT22;14714;48.106;11.546;2022-10-30T14:19:15;22.10;72.80
27200;DHT22;14714;48.106;11.546;2022-10-30T14:21:37;22.00;72.80
27200;DHT22;14714;48.106;11.546;2022-10-30T14:26:34;21.90;73.10
27200;DHT22;14714;48.106;11.546;2022-10-30T14:29:27;21.80;73.80
27200;DHT22;14714;48.106;11.546;2022-10-30T14:31:47;21.70;75.60
27200;DHT22;14714;48.106;11.546;2022-10-30T14:37:00;21.60;75.50
27200;DHT22;14714;48.106;11.546;2022-10-30T14:39:27;21.50;75.30
27200;DHT22;14714;48.106;11.546;2022-10-30T14:47:32;21.20;76.20
27200;DHT22;14714;48.106;11.546;2022-10-30T14:52:42;21.00;77.50
27200;DHT22;14714;48.106;11.546;2022-10-30T15:00:40;20.80;79.20
27200;DHT22;14714;48.106;11.546;2022-10-30T15:08:37;20.40;81.30
27200;DHT22;14714;48.106;11.546;2022-10-30T15:13:53;20.20;82.70
27200;DHT22;14714;48.106;11.546;2022-10-30T15:16:21;20.10;82.90
27200;DHT22;14714;48.106;11.546;2022-10-30T15:18:52;20.00;83.60
27200;DHT22;14714;48.106;11.546;2022-10-30T15:21:21;19.90;84.50
27200;DHT22;14714;48.106;11.546;2022-10-30T15:23:50;19.80;84.40
27200;DHT22;14714;48.106;11.546;2022-10-30T15:26:21;19.70;84.80
27200;DHT22;14714;48.106;11.546;2022-10-30T15:28:49;19.70;85.80
27200;DHT22;14714;48.106;11.546;2022-10-30T15:33:43;19.50;89.10
27200;DHT22;14714;48.106;11.546;2022-10-30T15:36:16;19.40;89.40
27200;DHT22;14714;48.106;11.546;2022-10-30T15:38:43;19.30;90.50
27200;DHT22;14714;48.106;11.546;2022-10-30T15:41:10;19.10;91.10
27200;DHT22;14714;48.106;11.546;2022-10-30T15:43:39;19.00;91.20
27200;DHT22;14714;48.106;11.546;2022-10-30T15:46:09;18.80;91.50
27200;DHT22;14714;48.106;11.546;2022-10-30T15:48:37;18.70;92.00
27200;DHT22;14714;48.106;11.546;2022-10-30T15:51:06;18.50;92.30
27200;DHT22;14714;48.106;11.546;2022-10-30T15:53:35;18.40;92.90
27200;DHT22;14714;48.106;11.546;2022-10-30T15:56:03;18.30;93.30
27200;DHT22;14714;48.106;11.546;2022-10-30T15:58:31;18.10;94.00
27200;DHT22;14714;48.106;11.546;2022-10-30T16:01:00;18.00;94.70
27200;DHT22;14714;48.106;11.546;2022-10-30T16:03:27;17.90;95.10
27200;DHT22;14714;48.106;11.546;2022-10-30T16:08:50;17.60;96.30
27200;DHT22;14714;48.106;11.546;2022-10-30T16:11:17;17.40;97.00
27200;DHT22;14714;48.106;11.546;2022-10-30T16:13:46;17.30;97.50
27200;DHT22;14714;48.106;11.546;2022-10-30T16:16:34;17.20;98.00
27200;DHT22;14714;48.106;11.546;2022-10-30T16:19:00;17.00;98.80
27200;DHT22;14714;48.106;11.546;2022-10-30T16:21:28;16.90;99.90
27200;DHT22;14714;48.106;11.546;2022-10-30T16:23:57;16.80;99.90
27200;DHT22;14714;48.106;11.546;2022-10-30T16:26:27;16.70;99.90
27200;DHT22;14714;48.106;11.546;2022-10-30T16:31:34;16.40;99.90
27200;DHT22;14714;48.106;11.546;2022-10-30T16:34:02;16.30;99.90
27200;DHT22;14714;48.106;11.546;2022-10-30T16:36:30;16.20;99.90
27200;DHT22;14714;48.106;11.546;2022-10-30T16:38:57;16.10;99.90
27200;DHT22;14714;48.106;11.546;2022-10-30T16:41:24;16.00;99.90
27200;DHT22;14714;48.106;11.546;2022-10-30T16:46:38;15.80;99.90
27200;DHT22;14714;48.106;11.546;2022-10-30T16:49:09;15.70;99.90
27200;DHT22;14714;48.106;11.546;2022-10-30T16:51:39;15.60;99.90
27200;DHT22;14714;48.106;11.546;2022-10-30T16:54:12;15.50;99.90
27200;DHT22;14714;48.106;11.546;2022-10-30T16:56:42;15.40;99.90
27200;DHT22;14714;48.106;11.546;2022-10-30T16:59:14;15.30;99.90
27200;DHT22;14714;48.106;11.546;2022-10-30T17:01:41;15.30;99.90
27200;DHT22;14714;48.106;11.546;2022-10-30T17:04:13;15.20;99.90
27200;DHT22;14714;48.106;11.546;2022-10-30T17:06:42;15.20;99.90
27200;DHT22;14714;48.106;11.546;2022-10-30T17:09:25;15.10;99.90
27200;DHT22;14714;48.106;11.546;2022-10-30T17:14:30;14.90;99.90
27200;DHT22;14714;48.106;11.546;2022-10-30T17:17:11;14.80;99.90
27200;DHT22;14714;48.106;11.546;2022-10-30T17:19:45;14.80;99.90
27200;DHT22;14714;48.106;11.546;2022-10-30T17:22:14;14.70;99.90
27200;DHT22;14714;48.106;11.546;2022-10-30T17:24:42;14.60;99.90
27200;DHT22;14714;48.106;11.546;2022-10-30T17:27:27;14.60;99.90
27200;DHT22;14714;48.106;11.546;2022-10-30T17:29:54;14.50;99.90
27200;DHT22;14714;48.106;11.546;2022-10-30T17:32:28;14.40;99.90
27200;DHT22;14714;48.106;11.546;2022-10-30T17:35:15;14.30;99.90
27200;DHT22;14714;48.106;11.546;2022-10-30T17:37:43;14.20;99.90
27200;DHT22;14714;48.106;11.546;2022-10-30T17:40:10;14.20;99.90
27200;DHT22;14714;48.106;11.546;2022-10-30T17:42:37;14.10;99.90
27200;DHT22;14714;48.106;11.546;2022-10-30T17:45:04;14.00;99.90
27200;DHT22;14714;48.106;11.546;2022-10-30T17:47:35;14.00;99.90
27200;DHT22;14714;48.106;11.546;2022-10-30T17:50:03;13.90;99.90
27200;DHT22;14714;48.106;11.546;2022-10-30T17:52:31;13.80;99.90
27200;DHT22;14714;48.106;11.546;2022-10-30T17:54:57;13.80;99.90
27200;DHT22;14714;48.106;11.546;2022-10-30T17:57:24;13.70;99.90
27200;DHT22;14714;48.106;11.546;2022-10-30T17:59:52;13.70;99.90
27200;DHT22;14714;48.106;11.546;2022-10-30T18:02:19;13.60;99.90
27200;DHT22;14714;48.106;11.546;2022-10-30T18:04:47;13.60;99.90
27200;DHT22;14714;48.106;11.546;2022-10-30T18:07:14;13.50;99.90